createdAt,value
2022-11-29T00:01:07.083Z,2.95
2022-11-29T00:06:18.919Z,2.97
2022-11-29T00:11:47.338Z,2.92
2022-11-29T00:16:53.997Z,2.89
2022-11-29T00:21:57.238Z,2.92
2022-11-29T00:27:01.540Z,2.95
2022-11-29T00:32:05.287Z,2.91
2022-11-29T00:37:08.366Z,2.86
2022-11-29T00:42:11.777Z,2.82
2022-11-29T00:47:14.880Z,2.74
2022-11-29T00:52:17.893Z,2.66
2022-11-29T00:57:21.294Z,2.67
2022-11-29T01:02:24.433Z,2.66
2022-11-29T01:07:27.848Z,2.62
2022-11-29T01:12:31.636Z,2.55
2022-11-29T01:17:39.896Z,2.53
2022-11-29T01:22:43.700Z,2.58
2022-11-29T01:27:47.917Z,2.54
2022-11-29T01:32:51.434Z,2.45
2022-11-29T01:37:54.643Z,2.40
2022-11-29T01:42:58.067Z,2.35
2022-11-29T01:48:01.719Z,2.28
2022-11-29T01:53:06.695Z,2.28
2022-11-29T01:58:10.141Z,2.29
2022-11-29T02:03:17.849Z,2.24
2022-11-29T02:08:30.791Z,2.28
2022-11-29T02:13:54.171Z,2.27
2022-11-29T02:19:25.339Z,2.23
2022-11-29T02:24:52.011Z,2.18
2022-11-29T02:30:16.539Z,2.14
2022-11-29T02:35:57.504Z,2.12
2022-11-29T02:41:58.063Z,2.20
2022-11-29T02:47:48.055Z,2.21
2022-11-29T02:52:59.966Z,2.15
2022-11-29T02:58:47.925Z,2.14
2022-11-29T03:04:02.747Z,2.11
2022-11-29T03:09:55.738Z,2.09
2022-11-29T03:15:27.494Z,2.04
2022-11-29T03:20:58.420Z,2.06
2022-11-29T03:26:35.708Z,2.09
2022-11-29T03:32:06.890Z,2.05
2022-11-29T03:37:24.741Z,2.04
2022-11-29T03:43:01.543Z,2.04
2022-11-29T03:48:17.371Z,2.00
2022-11-29T03:53:34.376Z,1.97
2022-11-29T03:59:09.840Z,1.99
2022-11-29T04:04:50.327Z,1.95
2022-11-29T04:10:36.639Z,1.98
2022-11-29T04:16:04.828Z,1.98
2022-11-29T04:21:23.465Z,1.96
2022-11-29T04:27:06.260Z,1.93
2022-11-29T04:32:37.822Z,1.97
2022-11-29T04:38:36.222Z,1.96
2022-11-29T04:43:53.429Z,1.94
2022-11-29T04:49:41.728Z,1.96
2022-11-29T04:55:10.754Z,1.94
2022-11-29T05:00:20.772Z,1.93
2022-11-29T05:05:51.965Z,1.92
2022-11-29T05:11:26.630Z,1.93
2022-11-29T05:17:08.739Z,1.99
2022-11-29T05:22:34.580Z,1.95
2022-11-29T05:28:17.011Z,1.94
2022-11-29T05:33:53.595Z,1.96
2022-11-29T05:39:18.521Z,1.94
2022-11-29T05:44:33.600Z,1.94
2022-11-29T05:49:41.720Z,1.93
2022-11-29T05:55:28.553Z,1.93
2022-11-29T06:01:20.967Z,1.96
2022-11-29T06:07:23.582Z,1.97
2022-11-29T06:12:28.332Z,1.95
2022-11-29T06:17:39.407Z,1.98
2022-11-29T06:22:50.649Z,2.01
2022-11-29T06:28:25.090Z,1.98
2022-11-29T06:33:46.889Z,2.01
2022-11-29T06:38:50.757Z,2.01
2022-11-29T06:43:54.667Z,2.02
2022-11-29T06:49:04.082Z,2.08
2022-11-29T06:54:19.352Z,2.10
2022-11-29T06:59:41.196Z,2.13
2022-11-29T07:04:53.500Z,2.12
2022-11-29T07:09:59.745Z,2.17
2022-11-29T07:15:03.812Z,2.16
2022-11-29T07:20:45.924Z,2.16
2022-11-29T07:26:01.939Z,2.12
2022-11-29T07:31:17.274Z,2.14
2022-11-29T07:37:10.020Z,2.18
2022-11-29T07:42:49.463Z,2.17
2022-11-29T07:47:52.782Z,2.20
2022-11-29T07:52:57.925Z,2.19
2022-11-29T07:58:01.038Z,2.19
2022-11-29T08:03:05.362Z,2.19
2022-11-29T08:08:08.475Z,2.25
2022-11-29T08:13:11.777Z,2.31
2022-11-29T08:18:16.326Z,2.32
2022-11-29T08:23:19.460Z,2.32
2022-11-29T08:28:22.632Z,2.36
2022-11-29T08:33:25.739Z,2.37
2022-11-29T08:38:29.151Z,2.34
2022-11-29T08:43:33.383Z,2.32
2022-11-29T08:48:37.252Z,2.38
2022-11-29T08:53:43.896Z,2.42
2022-11-29T08:58:47.552Z,2.40
2022-11-29T09:03:59.779Z,2.49
2022-11-29T09:09:04.281Z,2.59
2022-11-29T09:14:11.861Z,2.57
2022-11-29T09:19:15.198Z,2.52
2022-11-29T09:24:18.944Z,2.45
2022-11-29T09:29:22.133Z,2.44
2022-11-29T09:34:25.449Z,2.44
2022-11-29T09:39:28.543Z,2.42
2022-11-29T09:44:37.414Z,2.42
2022-11-29T09:50:04.144Z,2.44
2022-11-29T09:55:43.197Z,2.47
2022-11-29T10:00:52.839Z,2.49
2022-11-29T10:06:13.786Z,2.51
2022-11-29T10:11:22.649Z,2.47
2022-11-29T10:16:34.775Z,2.43
2022-11-29T10:21:45.650Z,2.54
2022-11-29T10:26:48.932Z,2.59
2022-11-29T10:31:56.958Z,2.56
2022-11-29T10:37:02.825Z,2.62
2022-11-29T10:42:36.159Z,2.64
2022-11-29T10:47:40.078Z,2.74
2022-11-29T10:52:43.173Z,2.71
2022-11-29T10:58:32.054Z,2.60
2022-11-29T11:03:42.431Z,2.57
2022-11-29T11:08:52.711Z,2.57
2022-11-29T11:14:26.138Z,2.48
2022-11-29T11:19:33.964Z,2.57
2022-11-29T11:24:42.359Z,2.60
2022-11-29T11:29:45.982Z,2.64
2022-11-29T11:35:01.611Z,2.61
2022-11-29T11:40:29.468Z,2.58
2022-11-29T11:45:38.933Z,2.57
2022-11-29T11:50:51.609Z,2.50
2022-11-29T11:56:00.908Z,2.53
2022-11-29T12:01:30.417Z,2.62
2022-11-29T12:06:59.872Z,2.73
2022-11-29T12:12:21.706Z,2.66
2022-11-29T12:17:53.004Z,2.63
2022-11-29T12:23:17.217Z,2.65
2022-11-29T12:28:24.783Z,2.71
2022-11-29T12:33:54.345Z,2.78
2022-11-29T12:39:20.563Z,2.78
2022-11-29T12:44:54.078Z,2.72
2022-11-29T12:50:39.988Z,2.64
2022-11-29T12:55:49.353Z,2.60
2022-11-29T13:01:01.665Z,2.60
2022-11-29T13:06:25.248Z,2.57
2022-11-29T13:11:56.002Z,2.59
2022-11-29T13:17:05.121Z,2.61
2022-11-29T13:22:20.148Z,2.60
2022-11-29T13:27:35.017Z,2.50
2022-11-29T13:33:01.067Z,2.40
2022-11-29T13:38:19.538Z,2.38
2022-11-29T13:43:45.585Z,2.36
2022-11-29T13:48:54.778Z,2.35
2022-11-29T13:54:03.701Z,2.38
2022-11-29T13:59:27.972Z,2.40
2022-11-29T14:04:45.429Z,2.34
2022-11-29T14:09:51.207Z,2.27
2022-11-29T14:15:04.094Z,2.24
2022-11-29T14:20:22.682Z,2.21
2022-11-29T14:31:03.403Z,2.11
2022-11-29T14:36:17.778Z,2.12
2022-11-29T14:41:53.790Z,2.12
2022-11-29T14:47:08.304Z,2.06
2022-11-29T14:52:14.609Z,2.03
2022-11-29T14:57:52.345Z,1.96
2022-11-29T15:03:15.810Z,1.91
2022-11-29T15:08:41.134Z,1.94
2022-11-29T15:14:21.001Z,1.95
2022-11-29T15:19:51.558Z,1.98
2022-11-29T15:24:54.872Z,1.97
2022-11-29T15:30:00.149Z,1.95
2022-11-29T15:35:04.785Z,1.94
2022-11-29T15:40:31.682Z,1.94
2022-11-29T15:45:40.233Z,1.91
2022-11-29T15:51:22.396Z,1.94
2022-11-29T15:56:52.316Z,2.00
2022-11-29T16:02:04.106Z,2.01
2022-11-29T16:07:08.181Z,2.00
2022-11-29T16:12:18.433Z,1.97
2022-11-29T16:17:22.251Z,2.01
2022-11-29T16:22:25.614Z,1.99
2022-11-29T16:27:36.364Z,1.89
2022-11-29T16:32:44.252Z,1.82
2022-11-29T16:37:48.300Z,1.85
2022-11-29T16:43:03.693Z,1.90
2022-11-29T16:48:22.152Z,1.91
2022-11-29T16:53:38.080Z,1.89
2022-11-29T16:59:16.905Z,1.86
2022-11-29T17:04:10.051Z,1.85
2022-11-29T17:09:28.484Z,1.88
2022-11-29T17:14:33.087Z,1.89
2022-11-29T17:19:36.288Z,1.84
2022-11-29T17:24:47.740Z,1.82
2022-11-29T17:29:51.753Z,1.85
2022-11-29T17:34:55.253Z,1.93
2022-11-29T17:39:58.479Z,1.93
2022-11-29T17:45:02.166Z,1.92
2022-11-29T17:50:06.781Z,1.89
2022-11-29T17:55:10.631Z,1.92
2022-11-29T18:00:15.895Z,2.00
2022-11-29T18:05:19.093Z,2.06
2022-11-29T18:10:22.410Z,2.08
2022-11-29T18:15:25.612Z,2.08
2022-11-29T18:20:28.722Z,2.07
2022-11-29T18:25:38.648Z,2.05
2022-11-29T18:30:42.694Z,2.08
2022-11-29T18:35:46.752Z,2.13
2022-11-29T18:40:49.953Z,2.08
2022-11-29T18:45:53.305Z,2.04
2022-11-29T18:51:05.704Z,2.01
2022-11-29T18:56:18.223Z,1.98
2022-11-29T19:01:23.696Z,2.01
2022-11-29T19:06:39.321Z,2.03
2022-11-29T19:11:43.405Z,2.02
2022-11-29T19:16:49.017Z,2.05
2022-11-29T19:21:53.007Z,2.04
2022-11-29T19:26:56.513Z,2.01
2022-11-29T19:31:59.619Z,2.04
2022-11-29T19:37:02.739Z,2.09
2022-11-29T19:42:06.037Z,2.14
2022-11-29T19:47:09.144Z,2.16
2022-11-29T19:52:12.472Z,2.17
2022-11-29T19:57:15.668Z,2.13
2022-11-29T20:02:18.939Z,2.11
2022-11-29T20:07:22.462Z,2.10
2022-11-29T20:12:25.699Z,2.17
2022-11-29T20:17:29.013Z,2.23
2022-11-29T20:22:32.232Z,2.20
2022-11-29T20:27:35.431Z,2.18
2022-11-29T20:32:38.945Z,2.17
2022-11-29T20:37:49.626Z,2.12
2022-11-29T20:43:05.021Z,2.08
2022-11-29T20:48:17.237Z,2.05
2022-11-29T20:53:41.640Z,1.99
2022-11-29T20:58:44.854Z,1.94
2022-11-29T21:03:48.237Z,1.92
2022-11-29T21:08:51.581Z,1.91
2022-11-29T21:13:55.402Z,1.91
2022-11-29T21:19:02.390Z,1.90
2022-11-29T21:24:25.480Z,1.88
2022-11-29T21:29:29.497Z,1.90
2022-11-29T21:34:34.345Z,1.93
2022-11-29T21:39:39.703Z,1.93
2022-11-29T21:44:42.922Z,1.93
2022-11-29T21:49:47.146Z,1.95
2022-11-29T21:54:50.976Z,1.93
2022-11-29T21:59:54.187Z,1.96
2022-11-29T22:04:57.299Z,2.01
2022-11-29T22:10:09.994Z,2.02
2022-11-29T22:15:20.214Z,2.01
2022-11-29T22:20:24.831Z,1.94
2022-11-29T22:25:28.047Z,1.85
2022-11-29T22:30:31.150Z,1.85
2022-11-29T22:35:34.354Z,1.84
2022-11-29T22:40:37.458Z,1.83
2022-11-29T22:45:40.566Z,1.80
2022-11-29T22:50:43.674Z,1.80
2022-11-29T22:55:46.821Z,1.80
2022-11-29T23:00:49.931Z,1.83
2022-11-29T23:05:53.028Z,1.86
2022-11-29T23:10:57.695Z,1.90
2022-11-29T23:16:01.877Z,1.89
2022-11-29T23:21:09.576Z,1.85
2022-11-29T23:26:29.742Z,1.80
2022-11-29T23:31:33.971Z,1.80
2022-11-29T23:36:37.141Z,1.81
2022-11-29T23:41:40.380Z,1.75
2022-11-29T23:46:43.450Z,1.72
2022-11-29T23:51:46.469Z,1.73
2022-11-29T23:56:49.649Z,1.75
